Pagrindinis puslapis
METAR-TAF:

METAR-TAF

Oro uostai :

Kešmas, Iranas

platuma: 26-45-18N, ilguma: 055-54-08E, Aukštis: 12 m

Dabartinis oras

Ataskaita buvo paskelbta 21 minutes, ne 22:00 UTC
Vėjas 4 kt iš Pietvakarių
Temperatūra 31°C
Drėgmė 89%
Slėgis 1001 hPa
Matomumas: 4000 m
rūkana

METAR: OIKQ 242200Z 23004KT 4000 BR NSC 31/29 Q1001

Laikas: 01:51 (22:21 UTC)


TAF: trūkstamas

Orai ataskaitas ir orų prognozės (METAR, TAF).

turimą stotys yra geltonos ir raudonos taškus žemėlapyje.

Perkelti pele per norėdami pamatyti stoties vardą.

Tada spustelėkite, norėdami matyti oro stebėjimo ir prognozės.

Norėdami pakeisti žemėlapį: spustelėkite ant žalios mygtukų su juodo kryžiaus žemyn,; žalią mygtuką su brūkšneliu, jei norite nutolinti; arba žalių rodyklių gretimoms žemėlapius.


METAR-TAF: